Time;durP1;ratioP1;P1;durP2;ratioP2;P2;SDS_P1;SDS_P2;PMS_P1;PMS_P2;Temp;Humidity;BMP_temperature;BMP_pressure;BME280_temperature;BME280_humidity;BME280_pressure;Samples;Min_cycle;Max_cycle;Signal;HPM_P1;HPM_P2
2021/12/13 00:01:22;;;;;;;11.70;6.57;;;4.20;99.90;;;;;;4123296;28;20574;-79
2021/12/13 00:03:30;;;;;;;10.23;5.93;;;4.20;99.90;;;;;;4114590;28;20522;-76
2021/12/13 00:05:36;;;;;;;10.33;6.50;;;4.20;99.90;;;;;;4118226;28;20494;-77
2021/12/13 00:07:40;;;;;;;11.43;6.30;;;4.30;99.90;;;;;;4130070;28;20455;-79
2021/12/13 00:09:45;;;;;;;11.07;6.43;;;4.30;99.90;;;;;;4127423;28;21408;-77
2021/12/13 00:11:49;;;;;;;10.97;6.50;;;4.30;99.90;;;;;;4125864;28;20496;-78
2021/12/13 00:13:54;;;;;;;11.27;6.63;;;4.30;99.90;;;;;;4130015;28;21086;-78
2021/12/13 00:15:59;;;;;;;11.10;6.27;;;4.20;99.90;;;;;;4128664;28;20468;-78
2021/12/13 00:18:03;;;;;;;11.13;6.33;;;4.20;99.90;;;;;;4129946;28;20491;-79
2021/12/13 00:20:12;;;;;;;12.60;6.50;;;4.20;99.90;;;;;;4116320;28;20526;-79
2021/12/13 00:22:19;;;;;;;10.47;6.43;;;4.30;99.90;;;;;;4124180;28;20570;-78
2021/12/13 00:24:24;;;;;;;10.63;6.43;;;4.20;99.90;;;;;;4130924;28;20460;-79
2021/12/13 00:26:29;;;;;;;11.87;6.77;;;4.30;99.90;;;;;;4124551;28;20453;-77
2021/12/13 00:28:35;;;;;;;11.57;7.00;;;4.30;99.90;;;;;;4114526;28;20527;-79
2021/12/13 00:30:45;;;;;;;11.07;6.43;;;4.30;99.90;;;;;;4114331;28;20830;-79
2021/12/13 00:32:56;;;;;;;11.30;6.87;;;4.30;99.90;;;;;;4112622;28;20555;-79
2021/12/13 00:35:00;;;;;;;9.90;6.13;;;4.30;99.90;;;;;;4118835;28;20476;-79
2021/12/13 00:37:10;;;;;;;10.13;6.37;;;4.30;99.90;;;;;;4124052;28;20468;-79
2021/12/13 00:39:16;;;;;;;12.20;7.17;;;4.30;99.90;;;;;;4123333;28;20459;-78
2021/12/13 00:41:23;;;;;;;10.80;6.23;;;4.30;99.90;;;;;;4120684;28;20841;-79
2021/12/13 00:43:29;;;;;;;10.93;7.07;;;4.30;99.90;;;;;;4114512;28;20459;-78
2021/12/13 00:45:35;;;;;;;12.37;7.07;;;4.30;99.90;;;;;;4123310;28;20498;-79
2021/12/13 00:47:40;;;;;;;9.90;6.50;;;4.30;99.90;;;;;;4126898;28;20475;-76
2021/12/13 00:49:46;;;;;;;10.90;7.03;;;4.30;99.90;;;;;;4121537;28;20468;-79
2021/12/13 00:51:53;;;;;;;12.40;7.07;;;4.30;99.90;;;;;;4129782;28;20530;-79
2021/12/13 00:54:00;;;;;;;11.20;6.43;;;4.30;99.90;;;;;;4130264;28;20554;-79
2021/12/13 00:56:40;;;;;;;12.20;7.00;;;4.30;99.90;;;;;;4120633;28;20469;-79
2021/12/13 00:58:46;;;;;;;12.43;6.80;;;4.40;99.90;;;;;;4119629;28;20911;-77
2021/12/13 01:00:51;;;;;;;12.37;7.03;;;4.40;99.90;;;;;;4113248;28;20464;-78
2021/12/13 01:02:58;;;;;;;11.47;6.60;;;4.40;99.90;;;;;;4115114;28;20492;-79
2021/12/13 01:05:04;;;;;;;11.47;7.03;;;4.40;99.90;;;;;;4115819;28;20492;-78
2021/12/13 01:07:40;;;;;;;9.80;6.37;;;4.40;99.90;;;;;;4126209;28;20484;-78
2021/12/13 01:10:40;;;;;;;11.20;6.93;;;4.40;99.90;;;;;;4129748;28;20952;-78
2021/12/13 01:12:42;;;;;;;11.87;6.83;;;4.40;99.90;;;;;;4113156;28;20909;-78
2021/12/13 01:14:57;;;;;;;12.07;7.20;;;4.40;99.90;;;;;;4112989;28;20916;-77
2021/12/13 01:17:05;;;;;;;12.97;7.60;;;4.40;99.90;;;;;;4113336;28;20469;-77
2021/12/13 01:19:28;;;;;;;12.53;7.50;;;4.40;99.90;;;;;;4114909;28;20558;-75
2021/12/13 01:21:41;;;;;;;10.57;6.93;;;4.40;99.90;;;;;;4129327;28;20464;-77
2021/12/13 01:23:50;;;;;;;11.77;7.10;;;4.40;99.90;;;;;;4127622;28;20487;-75
2021/12/13 01:26:02;;;;;;;13.27;7.30;;;4.50;99.90;;;;;;4127801;28;20503;-79
2021/12/13 01:28:11;;;;;;;12.63;7.53;;;4.40;99.90;;;;;;4129405;28;20468;-76
2021/12/13 01:30:18;;;;;;;12.57;7.33;;;4.50;99.90;;;;;;4124222;28;20992;-75
2021/12/13 01:32:20;;;;;;;11.10;6.93;;;4.50;99.90;;;;;;4113611;28;20481;-75
2021/12/13 01:34:24;;;;;;;11.73;7.20;;;4.50;99.90;;;;;;4116589;28;21024;-75
2021/12/13 01:36:29;;;;;;;11.43;7.27;;;4.50;99.90;;;;;;4113799;28;20832;-76
2021/12/13 01:38:35;;;;;;;12.77;7.00;;;4.50;99.90;;;;;;4113375;28;20479;-75
2021/12/13 01:40:39;;;;;;;11.50;6.67;;;4.50;99.90;;;;;;4115351;28;20841;-76
2021/12/13 01:42:43;;;;;;;11.80;6.87;;;4.50;99.90;;;;;;4122079;28;20826;-75
2021/12/13 01:44:47;;;;;;;13.80;7.97;;;4.50;99.90;;;;;;4116199;28;20463;-76
2021/12/13 01:46:52;;;;;;;12.70;7.47;;;4.50;99.90;;;;;;4122709;28;20467;-77
2021/12/13 01:48:55;;;;;;;12.60;7.87;;;4.50;99.90;;;;;;4119281;28;20526;-78
2021/12/13 01:51:05;;;;;;;12.63;8.13;;;4.50;99.90;;;;;;4112928;28;20457;-76
2021/12/13 01:53:07;;;;;;;10.83;6.70;;;4.50;99.90;;;;;;4112868;28;20856;-80
2021/12/13 01:55:15;;;;;;;13.53;7.87;;;4.60;99.90;;;;;;4124359;28;20495;-76
2021/12/13 01:57:26;;;;;;;12.60;7.87;;;4.50;99.90;;;;;;4123042;28;20539;-79
2021/12/13 01:59:51;;;;;;;12.50;7.37;;;4.60;99.90;;;;;;4114450;28;20559;-76
2021/12/13 02:01:53;;;;;;;14.37;7.70;;;4.60;99.90;;;;;;4116892;28;20515;-76
2021/12/13 02:03:59;;;;;;;12.53;7.27;;;4.60;99.90;;;;;;4119641;28;21009;-77
2021/12/13 02:06:01;;;;;;;12.80;7.77;;;4.60;99.90;;;;;;4130622;28;20460;-77
2021/12/13 02:08:07;;;;;;;12.47;7.53;;;4.60;99.90;;;;;;4121510;28;20515;-78
2021/12/13 02:10:13;;;;;;;12.00;7.47;;;4.60;99.90;;;;;;4125665;28;20566;-76
2021/12/13 02:12:17;;;;;;;12.50;7.13;;;4.60;99.90;;;;;;4136133;28;20909;-78
2021/12/13 02:14:24;;;;;;;12.00;7.57;;;4.60;99.90;;;;;;4124195;28;20891;-78
2021/12/13 02:18:55;;;;;;;12.13;7.40;;;4.60;99.90;;;;;;4125237;28;20436;-78
2021/12/13 02:21:05;;;;;;;11.87;7.03;;;4.60;99.90;;;;;;4121275;28;20476;-79
2021/12/13 02:23:08;;;;;;;12.03;7.33;;;4.60;99.90;;;;;;4119285;28;21000;-77
2021/12/13 02:25:20;;;;;;;11.23;6.93;;;4.60;99.90;;;;;;4123329;28;20526;-77
2021/12/13 02:27:26;;;;;;;12.47;7.00;;;4.60;99.90;;;;;;4134551;28;20867;-78
2021/12/13 02:29:35;;;;;;;13.57;7.23;;;4.60;99.90;;;;;;4133889;28;20451;-76
2021/12/13 02:31:40;;;;;;;14.13;8.47;;;4.60;99.90;;;;;;4118850;28;20908;-76
2021/12/13 02:33:46;;;;;;;13.03;7.80;;;4.60;99.90;;;;;;4115862;28;20837;-76
2021/12/13 02:35:54;;;;;;;12.43;7.50;;;4.70;99.90;;;;;;4115888;28;20479;-78
2021/12/13 02:37:59;;;;;;;12.23;7.50;;;4.60;99.90;;;;;;4118328;28;20531;-77
2021/12/13 02:40:05;;;;;;;13.33;8.00;;;4.60;99.90;;;;;;4124935;28;20476;-79
2021/12/13 02:42:09;;;;;;;12.20;7.33;;;4.70;99.90;;;;;;4132850;28;20483;-79
2021/12/13 02:44:14;;;;;;;12.17;7.63;;;4.70;99.90;;;;;;4133612;28;20480;-76
2021/12/13 02:46:17;;;;;;;12.33;7.20;;;4.70;99.90;;;;;;4131286;28;20461;-79
2021/12/13 02:48:26;;;;;;;12.20;7.47;;;4.70;99.90;;;;;;4124773;28;20807;-79
2021/12/13 02:50:35;;;;;;;11.73;7.40;;;4.70;99.90;;;;;;4123498;28;20526;-79
2021/12/13 02:52:39;;;;;;;13.33;7.57;;;4.70;99.90;;;;;;4125317;28;20933;-78
2021/12/13 02:54:44;;;;;;;12.20;7.50;;;4.70;99.90;;;;;;4128842;28;21000;-79
2021/12/13 02:56:53;;;;;;;12.47;7.77;;;4.70;99.90;;;;;;4127169;28;20475;-79
2021/12/13 02:58:59;;;;;;;11.60;6.90;;;4.70;99.90;;;;;;4128730;28;20502;-79
2021/12/13 03:01:05;;;;;;;13.60;7.63;;;4.70;99.90;;;;;;4117035;28;20514;-79
2021/12/13 03:03:12;;;;;;;10.90;7.17;;;4.80;99.90;;;;;;4129697;28;20821;-78
2021/12/13 03:05:19;;;;;;;13.20;7.90;;;4.70;99.90;;;;;;4115202;28;20444;-79
2021/12/13 03:07:30;;;;;;;13.83;7.83;;;4.70;99.90;;;;;;4115578;28;20967;-79
2021/12/13 03:09:35;;;;;;;11.30;7.07;;;4.80;99.90;;;;;;4114417;28;20527;-80
2021/12/13 03:11:37;;;;;;;11.47;6.50;;;4.80;99.90;;;;;;4126668;28;20468;-79
2021/12/13 03:13:40;;;;;;;12.63;7.67;;;5.00;99.90;;;;;;4131075;28;20455;-79
2021/12/13 03:15:52;;;;;;;13.03;7.83;;;4.80;99.90;;;;;;4123578;28;20480;-79
2021/12/13 03:17:59;;;;;;;12.70;7.27;;;4.80;99.90;;;;;;4115071;28;20954;-79
2021/12/13 03:20:21;;;;;;;13.03;7.47;;;4.80;99.90;;;;;;4118555;28;20508;-80
2021/12/13 03:22:41;;;;;;;13.27;7.90;;;4.80;99.90;;;;;;4116655;28;20584;-79
2021/12/13 03:25:06;;;;;;;11.37;7.00;;;4.80;99.90;;;;;;4126412;28;20502;-76
2021/12/13 03:27:26;;;;;;;11.33;6.97;;;4.80;99.90;;;;;;4115137;28;20950;-79
2021/12/13 03:29:42;;;;;;;13.03;7.50;;;4.80;99.90;;;;;;4118546;28;20860;-78
2021/12/13 03:31:47;;;;;;;10.70;6.87;;;4.80;99.90;;;;;;4127790;28;20499;-79
2021/12/13 03:33:56;;;;;;;11.57;7.17;;;4.90;99.90;;;;;;4131264;28;20456;-77
2021/12/13 03:36:05;;;;;;;11.60;6.87;;;4.80;99.90;;;;;;4131269;28;20455;-78
2021/12/13 03:38:11;;;;;;;11.97;6.63;;;4.90;99.90;;;;;;4125079;28;20483;-77
2021/12/13 03:40:15;;;;;;;12.23;6.80;;;4.90;99.90;;;;;;4115601;28;20476;-78
2021/12/13 03:42:21;;;;;;;12.03;7.03;;;4.90;99.90;;;;;;4114680;28;20994;-76
2021/12/13 03:44:27;;;;;;;12.80;7.30;;;4.90;99.90;;;;;;4121640;28;20467;-78
2021/12/13 03:46:34;;;;;;;11.83;6.73;;;4.90;99.90;;;;;;4123273;28;20459;-77
2021/12/13 03:48:41;;;;;;;10.67;6.30;;;4.90;99.90;;;;;;4125616;28;20509;-76
2021/12/13 03:50:47;;;;;;;10.33;6.40;;;4.90;99.90;;;;;;4118618;28;20475;-77
2021/12/13 03:52:53;;;;;;;12.37;7.13;;;4.90;99.90;;;;;;4130335;28;20475;-78
2021/12/13 03:54:57;;;;;;;11.80;6.80;;;4.90;99.90;;;;;;4129678;28;20499;-79
2021/12/13 03:57:00;;;;;;;12.77;7.10;;;4.90;99.90;;;;;;4130434;28;20499;-77
2021/12/13 03:59:09;;;;;;;11.53;6.43;;;4.90;99.90;;;;;;4119982;28;20913;-78
2021/12/13 04:01:15;;;;;;;12.17;6.83;;;4.90;99.90;;;;;;4130173;28;20463;-78
2021/12/13 04:03:19;;;;;;;11.20;6.97;;;4.90;99.90;;;;;;4118430;28;20500;-77
2021/12/13 04:05:24;;;;;;;11.87;7.20;;;5.00;99.90;;;;;;4121175;28;20463;-80
2021/12/13 04:07:34;;;;;;;11.43;6.93;;;5.00;99.90;;;;;;4125025;28;20962;-78
2021/12/13 04:09:36;;;;;;;12.57;7.37;;;5.00;99.90;;;;;;4119035;28;20490;-77
2021/12/13 04:11:44;;;;;;;13.33;7.17;;;5.00;99.90;;;;;;4115905;28;20531;-77
2021/12/13 04:13:55;;;;;;;11.83;6.77;;;5.00;99.90;;;;;;4124366;28;20494;-78
2021/12/13 04:16:06;;;;;;;15.30;8.67;;;5.00;99.90;;;;;;4123183;28;20527;-80
2021/12/13 04:18:25;;;;;;;13.97;7.90;;;5.00;99.90;;;;;;4131324;28;20567;-80
2021/12/13 04:20:32;;;;;;;14.80;7.70;;;5.00;99.90;;;;;;4113537;28;20543;-79
2021/12/13 04:22:37;;;;;;;14.70;8.47;;;5.00;99.90;;;;;;4113446;28;20500;-80
2021/12/13 04:24:42;;;;;;;14.50;7.73;;;5.00;99.90;;;;;;4113793;28;20457;-81
2021/12/13 04:26:47;;;;;;;13.40;7.43;;;5.00;99.90;;;;;;4114349;28;20913;-80
2021/12/13 04:28:52;;;;;;;15.03;8.17;;;5.00;99.90;;;;;;4113536;28;20480;-80
2021/12/13 04:30:57;;;;;;;15.20;7.90;;;5.10;99.90;;;;;;4113933;28;20469;-80
2021/12/13 04:33:05;;;;;;;15.77;8.43;;;5.00;99.90;;;;;;4113773;28;20543;-80
2021/12/13 04:35:10;;;;;;;14.77;7.90;;;5.00;99.90;;;;;;4119581;28;20554;-80
2021/12/13 04:37:16;;;;;;;16.03;8.20;;;5.10;99.90;;;;;;4119570;28;20484;-80
2021/12/13 04:39:23;;;;;;;16.13;8.60;;;5.10;99.90;;;;;;4121771;28;20456;-81
2021/12/13 04:41:28;;;;;;;14.47;7.90;;;5.10;99.90;;;;;;4117782;28;20465;-80
2021/12/13 04:43:35;;;;;;;15.17;7.63;;;5.10;99.90;;;;;;4118617;28;20465;-81
2021/12/13 04:45:39;;;;;;;14.63;7.73;;;5.10;99.90;;;;;;4124904;28;20472;-80
2021/12/13 04:47:48;;;;;;;15.83;8.03;;;5.10;99.90;;;;;;4117376;28;20473;-79
2021/12/13 04:49:57;;;;;;;16.07;8.60;;;5.10;99.90;;;;;;4126879;28;20503;-79
2021/12/13 04:52:01;;;;;;;15.53;8.37;;;5.10;99.90;;;;;;4114072;28;20507;-79
2021/12/13 04:54:06;;;;;;;13.37;7.63;;;5.10;99.90;;;;;;4115545;28;20508;-78
2021/12/13 04:56:12;;;;;;;15.67;7.93;;;5.10;99.90;;;;;;4115429;28;20543;-80
2021/12/13 04:58:15;;;;;;;14.27;8.00;;;5.10;99.90;;;;;;4128662;28;20468;-80
2021/12/13 05:00:20;;;;;;;15.70;8.13;;;5.10;99.90;;;;;;4130084;28;20460;-80
2021/12/13 05:02:23;;;;;;;17.37;8.70;;;5.10;99.90;;;;;;4130053;28;20511;-78
2021/12/13 05:04:27;;;;;;;16.13;8.40;;;5.20;99.90;;;;;;4113587;28;20472;-80
2021/12/13 05:06:33;;;;;;;16.63;9.00;;;5.20;99.90;;;;;;4114199;28;20532;-78
2021/12/13 05:08:35;;;;;;;16.43;8.80;;;5.20;99.90;;;;;;4112100;28;20456;-83
2021/12/13 05:10:38;;;;;;;19.53;9.87;;;5.20;99.90;;;;;;4112289;28;20488;-80
2021/12/13 05:12:41;;;;;;;17.10;9.40;;;5.20;99.90;;;;;;4111605;28;21139;-76
2021/12/13 05:14:45;;;;;;;19.23;9.63;;;5.20;99.90;;;;;;4128625;28;20503;-77
2021/12/13 05:16:50;;;;;;;22.07;11.33;;;5.20;99.90;;;;;;4115026;28;20997;-78
2021/12/13 05:18:55;;;;;;;19.20;9.70;;;5.20;99.90;;;;;;4117178;28;20954;-76
2021/12/13 05:21:01;;;;;;;22.00;10.23;;;5.20;99.90;;;;;;4115594;28;20531;-76
2021/12/13 05:23:06;;;;;;;17.87;9.57;;;5.20;99.90;;;;;;4123278;28;21007;-76
2021/12/13 05:25:08;;;;;;;18.10;9.90;;;5.30;99.90;;;;;;4113274;28;20503;-78
2021/12/13 05:27:14;;;;;;;18.33;9.87;;;5.30;99.90;;;;;;4113277;28;20870;-79
2021/12/13 05:29:28;;;;;;;18.83;10.43;;;5.30;99.90;;;;;;4118968;28;20835;-77
2021/12/13 05:31:31;;;;;;;20.10;9.97;;;5.30;99.90;;;;;;4113814;28;20483;-76
2021/12/13 05:33:36;;;;;;;20.73;10.83;;;5.30;99.90;;;;;;4116483;28;20853;-77
2021/12/13 05:35:43;;;;;;;21.47;10.60;;;5.30;99.90;;;;;;4117245;28;20887;-78
2021/12/13 05:37:47;;;;;;;22.47;11.30;;;5.30;99.90;;;;;;4116915;28;20516;-77
2021/12/13 05:39:57;;;;;;;21.90;10.77;;;5.30;99.90;;;;;;4124985;28;20471;-77
2021/12/13 05:42:04;;;;;;;20.30;10.13;;;5.30;99.90;;;;;;4121801;28;20998;-76
2021/12/13 05:44:11;;;;;;;19.40;9.53;;;5.30;99.90;;;;;;4115993;28;20464;-80
2021/12/13 05:46:16;;;;;;;22.20;11.20;;;5.40;99.90;;;;;;4124193;28;20453;-78
2021/12/13 05:48:21;;;;;;;20.67;10.83;;;5.40;99.90;;;;;;4126065;28;20474;-80
2021/12/13 05:50:32;;;;;;;22.43;11.70;;;5.40;99.90;;;;;;4120162;28;20523;-79
2021/12/13 05:52:37;;;;;;;22.63;11.27;;;5.40;99.90;;;;;;4121713;28;20480;-78
2021/12/13 05:54:43;;;;;;;19.23;10.90;;;5.50;99.90;;;;;;4123708;28;20478;-77
2021/12/13 05:56:48;;;;;;;20.13;10.43;;;5.40;99.90;;;;;;4124235;28;20464;-79
2021/12/13 05:58:52;;;;;;;22.83;10.97;;;5.40;99.90;;;;;;4131819;28;20448;-77
2021/12/13 06:00:58;;;;;;;23.13;11.70;;;5.40;99.90;;;;;;4125311;28;20472;-77
2021/12/13 06:03:06;;;;;;;22.03;11.37;;;5.40;99.90;;;;;;4116450;28;20551;-76
2021/12/13 06:05:14;;;;;;;25.37;12.60;;;5.40;99.90;;;;;;4115989;28;20479;-77
2021/12/13 06:07:20;;;;;;;24.80;13.03;;;5.40;99.90;;;;;;4116284;28;20511;-77
2021/12/13 06:09:44;;;;;;;22.03;11.70;;;5.50;99.90;;;;;;4116051;28;20484;-78
2021/12/13 06:12:03;;;;;;;23.20;11.43;;;5.50;99.90;;;;;;4124835;28;20499;-78
2021/12/13 06:14:14;;;;;;;24.53;12.07;;;5.50;99.90;;;;;;4122509;28;20456;-77
2021/12/13 06:16:29;;;;;;;28.37;12.60;;;5.50;99.90;;;;;;4116598;28;21161;-78
2021/12/13 06:18:39;;;;;;;25.23;12.87;;;5.50;99.90;;;;;;4116137;28;20512;-81
2021/12/13 06:20:45;;;;;;;24.63;12.50;;;5.50;99.90;;;;;;4129508;28;20972;-81
2021/12/13 06:22:48;;;;;;;23.73;11.90;;;5.50;99.90;;;;;;4124810;28;20492;-81
2021/12/13 06:24:56;;;;;;;26.03;13.80;;;5.50;99.90;;;;;;4115675;28;20464;-77
2021/12/13 06:27:06;;;;;;;24.20;13.33;;;5.60;99.90;;;;;;4122304;28;20467;-79
2021/12/13 06:29:09;;;;;;;24.03;13.53;;;5.60;99.90;;;;;;4127169;28;20966;-80
2021/12/13 06:31:14;;;;;;;20.73;11.47;;;5.60;99.90;;;;;;4125309;28;20553;-78
2021/12/13 06:33:17;;;;;;;20.77;11.43;;;5.60;99.90;;;;;;4122825;28;20515;-78
2021/12/13 06:35:34;;;;;;;26.43;13.77;;;5.60;99.90;;;;;;4126830;28;21074;-77
2021/12/13 06:37:36;;;;;;;25.27;13.17;;;5.60;99.90;;;;;;4123581;28;20460;-80
2021/12/13 06:39:37;;;;;;;23.13;12.13;;;5.60;99.90;;;;;;4125369;28;20463;-78
2021/12/13 06:41:43;;;;;;;22.03;11.83;;;5.60;99.90;;;;;;4117799;28;20449;-78
2021/12/13 06:43:49;;;;;;;23.10;11.37;;;5.60;99.90;;;;;;4130033;28;20444;-81
2021/12/13 06:45:51;;;;;;;25.30;13.03;;;5.60;99.90;;;;;;4125545;28;20461;-79
2021/12/13 06:47:54;;;;;;;24.20;12.23;;;5.70;99.90;;;;;;4125090;28;21001;-80
2021/12/13 06:49:59;;;;;;;25.37;13.13;;;5.60;99.90;;;;;;4119686;28;20469;-79
2021/12/13 06:52:05;;;;;;;24.80;12.47;;;5.70;99.90;;;;;;4119939;28;21084;-79
2021/12/13 06:54:11;;;;;;;25.90;12.50;;;5.70;99.90;;;;;;4118709;28;20584;-81
2021/12/13 06:56:23;;;;;;;28.67;14.33;;;5.70;99.90;;;;;;4118033;28;21279;-80
2021/12/13 06:58:27;;;;;;;26.53;14.07;;;5.70;99.90;;;;;;4121117;28;20485;-81
2021/12/13 07:00:32;;;;;;;25.37;13.33;;;5.70;99.90;;;;;;4119418;28;20518;-79
2021/12/13 07:02:40;;;;;;;24.97;12.67;;;5.70;99.90;;;;;;4137699;23;21466;-86
2021/12/13 07:05:09;;;;;;;25.67;13.57;;;5.70;99.90;;;;;;4125908;28;20907;-87
2021/12/13 07:07:13;;;;;;;29.93;13.87;;;5.70;99.90;;;;;;4125150;28;20461;-86
2021/12/13 07:09:20;;;;;;;28.20;14.23;;;5.80;99.90;;;;;;4122762;28;20476;-86
2021/12/13 07:11:22;;;;;;;32.03;15.83;;;5.80;99.90;;;;;;4129478;28;20539;-86
2021/12/13 07:13:28;;;;;;;38.60;17.13;;;6.00;99.90;;;;;;4124333;28;20536;-86
2021/12/13 07:15:43;;;;;;;38.23;16.33;;;5.80;99.90;;;;;;4123163;28;20510;-86
2021/12/13 07:18:04;;;;;;;37.47;16.90;;;5.80;99.90;;;;;;4124291;28;20478;-86
2021/12/13 07:20:16;;;;;;;35.60;15.40;;;5.80;99.90;;;;;;4125556;28;20874;-86
2021/12/13 07:22:21;;;;;;;31.37;14.40;;;5.90;99.90;;;;;;4126030;28;20964;-86
2021/12/13 07:24:40;;;;;;;31.23;14.50;;;5.90;99.90;;;;;;4123544;28;20472;-86
2021/12/13 07:26:49;;;;;;;26.90;13.47;;;5.90;99.90;;;;;;4122005;28;21036;-86
2021/12/13 07:28:53;;;;;;;31.00;13.80;;;5.90;99.90;;;;;;4125516;28;20459;-86
2021/12/13 07:30:56;;;;;;;39.83;17.33;;;5.90;99.90;;;;;;4123810;28;20460;-86
2021/12/13 07:33:01;;;;;;;37.43;16.83;;;5.90;99.90;;;;;;4123073;28;20538;-84
2021/12/13 07:35:10;;;;;;;32.93;16.03;;;5.90;99.90;;;;;;4124132;28;20814;-85
2021/12/13 07:37:13;;;;;;;36.17;17.63;;;5.90;99.90;;;;;;4119974;28;21078;-85
2021/12/13 07:39:17;;;;;;;40.77;17.07;;;6.00;99.90;;;;;;4121118;28;20468;-85
2021/12/13 07:41:19;;;;;;;36.33;16.97;;;6.00;99.90;;;;;;4121633;28;20500;-85
2021/12/13 07:43:26;;;;;;;40.03;17.97;;;6.00;99.90;;;;;;4120177;28;20907;-85
2021/12/13 07:45:31;;;;;;;34.20;16.73;;;6.00;99.90;;;;;;4121512;28;20456;-85
2021/12/13 07:47:33;;;;;;;32.80;15.90;;;6.00;99.90;;;;;;4123216;28;20444;-84
2021/12/13 07:49:37;;;;;;;39.53;18.13;;;6.00;99.90;;;;;;4120763;28;20473;-84
2021/12/13 07:51:47;;;;;;;35.70;16.63;;;6.10;99.90;;;;;;4120768;28;20471;-85
2021/12/13 07:53:54;;;;;;;36.20;16.20;;;6.10;99.90;;;;;;4116965;28;20501;-85
2021/12/13 07:55:56;;;;;;;34.47;15.93;;;6.10;99.90;;;;;;4116981;28;20489;-85
2021/12/13 07:58:02;;;;;;;36.47;15.87;;;6.10;99.90;;;;;;4124365;28;20444;-85
2021/12/13 08:00:12;;;;;;;36.53;17.13;;;6.10;99.90;;;;;;4119772;28;20877;-84
2021/12/13 08:02:26;;;;;;;35.33;16.63;;;6.10;99.90;;;;;;4121737;28;20905;-85
2021/12/13 08:04:32;;;;;;;37.93;16.27;;;6.10;99.90;;;;;;4121905;28;20992;-85
2021/12/13 08:06:39;;;;;;;37.70;16.53;;;6.20;99.90;;;;;;4123882;28;20444;-85
2021/12/13 08:08:49;;;;;;;39.37;17.30;;;6.20;99.90;;;;;;4123916;28;20463;-85
2021/12/13 08:10:58;;;;;;;40.27;17.03;;;6.30;99.90;;;;;;4125294;28;20461;-85
2021/12/13 08:13:05;;;;;;;39.03;16.17;;;6.20;99.90;;;;;;4125562;28;20624;-85
2021/12/13 08:15:14;;;;;;;41.83;17.40;;;6.20;99.90;;;;;;4124488;28;20483;-86
2021/12/13 08:17:19;;;;;;;35.77;17.33;;;6.20;99.90;;;;;;4122939;28;20501;-85
2021/12/13 08:19:24;;;;;;;40.93;17.60;;;6.20;99.90;;;;;;4119367;28;20468;-82
2021/12/13 08:21:27;;;;;;;36.80;16.40;;;6.30;99.90;;;;;;4119111;28;20457;-86
2021/12/13 08:23:35;;;;;;;37.60;16.87;;;6.30;99.90;;;;;;4119682;28;20485;-85
2021/12/13 08:25:40;;;;;;;40.70;17.63;;;6.40;99.90;;;;;;4122054;28;20583;-85
2021/12/13 08:27:50;;;;;;;43.47;18.30;;;6.30;99.90;;;;;;4119736;28;20476;-85
2021/12/13 08:30:10;;;;;;;39.20;17.47;;;6.40;99.90;;;;;;4122373;28;20836;-85
2021/12/13 08:32:17;;;;;;;36.57;17.73;;;6.40;99.90;;;;;;4119194;28;20533;-85
2021/12/13 08:34:26;;;;;;;39.40;17.47;;;6.40;99.90;;;;;;4120588;28;20543;-86
2021/12/13 08:36:32;;;;;;;29.97;15.03;;;6.40;99.90;;;;;;4123463;28;20966;-85
2021/12/13 08:38:40;;;;;;;34.83;15.33;;;6.40;99.90;;;;;;4123305;28;20492;-85
2021/12/13 08:40:47;;;;;;;35.87;17.00;;;6.40;99.90;;;;;;4122606;28;20463;-85
2021/12/13 08:42:52;;;;;;;34.30;15.93;;;6.50;99.90;;;;;;4124465;28;20504;-85
2021/12/13 08:45:03;;;;;;;34.43;16.40;;;6.50;99.90;;;;;;4122413;28;20868;-85
2021/12/13 08:47:08;;;;;;;34.40;15.90;;;6.50;99.90;;;;;;4123232;28;20451;-85
2021/12/13 08:49:21;;;;;;;35.90;15.93;;;6.50;99.90;;;;;;4122290;28;20467;-85
2021/12/13 08:51:26;;;;;;;31.07;14.63;;;6.50;99.90;;;;;;4120397;28;20919;-85
2021/12/13 08:53:34;;;;;;;33.80;15.17;;;6.50;99.90;;;;;;4120639;28;20480;-85
2021/12/13 08:55:40;;;;;;;37.70;16.77;;;6.60;99.90;;;;;;4123923;28;21021;-85
2021/12/13 08:57:49;;;;;;;39.00;17.73;;;6.60;99.90;;;;;;4122501;28;20503;-84
2021/12/13 08:59:54;;;;;;;40.60;18.40;;;6.60;99.90;;;;;;4122402;28;20479;-85
2021/12/13 09:01:59;;;;;;;40.30;18.80;;;6.60;99.90;;;;;;4122161;28;20472;-85
2021/12/13 09:04:02;;;;;;;37.13;16.80;;;6.60;99.90;;;;;;4121467;28;20512;-85
2021/12/13 09:06:27;;;;;;;36.30;16.50;;;6.60;99.90;;;;;;4124099;28;20490;-85
2021/12/13 09:08:33;;;;;;;36.53;16.27;;;6.70;99.90;;;;;;4122245;28;20477;-84
2021/12/13 09:10:42;;;;;;;41.53;17.53;;;6.70;99.90;;;;;;4125662;28;20539;-86
2021/12/13 09:12:45;;;;;;;38.53;16.90;;;6.70;99.90;;;;;;4123965;28;20473;-85
2021/12/13 09:14:51;;;;;;;36.50;17.27;;;6.70;99.90;;;;;;4126393;28;20919;-86
2021/12/13 09:17:11;;;;;;;39.60;16.93;;;6.70;99.90;;;;;;4121480;28;21022;-86
2021/12/13 09:19:22;;;;;;;32.13;15.13;;;6.80;99.90;;;;;;4129148;28;20823;-85
2021/12/13 09:21:24;;;;;;;34.73;16.63;;;6.80;99.90;;;;;;4125157;28;20968;-86
2021/12/13 09:23:28;;;;;;;36.13;16.77;;;6.80;99.90;;;;;;4128598;28;20548;-86
2021/12/13 09:25:33;;;;;;;41.43;18.17;;;6.80;99.90;;;;;;4122896;28;20525;-85
2021/12/13 09:27:50;;;;;;;38.57;18.43;;;6.80;99.90;;;;;;4127149;28;20589;-85
2021/12/13 09:30:01;;;;;;;37.23;18.17;;;6.90;99.90;;;;;;4127856;28;20461;-85
2021/12/13 09:32:12;;;;;;;32.40;15.37;;;6.90;99.90;;;;;;4123761;28;20464;-85
2021/12/13 09:34:18;;;;;;;36.30;17.33;;;6.90;99.90;;;;;;4126011;28;20547;-85
2021/12/13 09:36:22;;;;;;;34.33;16.90;;;6.90;99.90;;;;;;4123953;28;20480;-86
2021/12/13 09:38:32;;;;;;;34.40;17.03;;;6.90;99.90;;;;;;4123676;28;20514;-86
2021/12/13 09:40:39;;;;;;;37.23;17.63;;;6.90;99.90;;;;;;4122388;28;20499;-85
2021/12/13 09:42:46;;;;;;;36.23;17.93;;;7.00;99.90;;;;;;4124804;28;20551;-85
2021/12/13 09:44:55;;;;;;;37.40;16.17;;;7.00;99.90;;;;;;4124177;28;20477;-86
2021/12/13 09:47:05;;;;;;;35.17;16.03;;;7.40;99.90;;;;;;4125901;28;20479;-86
2021/12/13 09:49:13;;;;;;;33.90;15.77;;;7.10;99.90;;;;;;4124622;28;20468;-86
2021/12/13 09:51:21;;;;;;;33.57;15.60;;;7.10;99.90;;;;;;4127099;28;20519;-85
2021/12/13 09:53:31;;;;;;;33.97;16.20;;;7.10;99.90;;;;;;4124010;28;20510;-86
2021/12/13 09:55:37;;;;;;;35.00;15.73;;;7.10;99.90;;;;;;4125652;28;21068;-86
2021/12/13 09:57:43;;;;;;;33.00;15.67;;;7.10;99.90;;;;;;4126058;28;21116;-86
2021/12/13 09:59:48;;;;;;;32.93;14.90;;;7.10;99.90;;;;;;4121480;28;20460;-86
2021/12/13 10:01:51;;;;;;;31.80;14.53;;;7.20;99.90;;;;;;4123988;28;20478;-86
2021/12/13 10:03:57;;;;;;;36.33;15.00;;;7.20;99.90;;;;;;4124390;28;20983;-86
2021/12/13 10:06:04;;;;;;;32.73;14.83;;;7.30;99.90;;;;;;4123053;28;20960;-86
2021/12/13 10:08:09;;;;;;;33.50;14.23;;;7.30;99.90;;;;;;4127989;28;20489;-86
2021/12/13 10:10:16;;;;;;;30.07;13.00;;;7.30;99.90;;;;;;4124826;28;20517;-86
2021/12/13 10:12:21;;;;;;;30.83;13.87;;;7.30;99.90;;;;;;4122768;28;20515;-86
2021/12/13 10:14:28;;;;;;;28.33;12.60;;;7.40;99.90;;;;;;4124163;28;20458;-86
2021/12/13 10:16:33;;;;;;;34.30;14.80;;;7.40;99.90;;;;;;4124526;28;20514;-86
2021/12/13 10:18:39;;;;;;;30.13;13.90;;;7.40;99.90;;;;;;4125920;28;20465;-86
2021/12/13 10:20:43;;;;;;;31.07;13.40;;;7.50;99.90;;;;;;4125547;28;20469;-84
2021/12/13 10:22:50;;;;;;;29.17;13.63;;;7.50;99.90;;;;;;4124766;28;20497;-86
2021/12/13 10:24:54;;;;;;;32.37;13.70;;;7.50;99.90;;;;;;4120113;28;20850;-86
2021/12/13 10:26:59;;;;;;;32.23;14.27;;;7.50;99.90;;;;;;4123999;28;20533;-86
2021/12/13 10:29:05;;;;;;;31.03;13.27;;;7.60;99.90;;;;;;4125575;28;20887;-86
2021/12/13 10:31:11;;;;;;;30.67;13.57;;;7.70;99.90;;;;;;4125944;28;20464;-86
2021/12/13 10:33:14;;;;;;;30.53;13.93;;;7.60;99.90;;;;;;4131825;28;20485;-86
2021/12/13 10:35:19;;;;;;;29.67;13.70;;;7.60;99.90;;;;;;4132631;28;20455;-86
2021/12/13 10:37:26;;;;;;;31.97;12.43;;;7.60;99.90;;;;;;4134182;28;20537;-86
2021/12/13 10:39:33;;;;;;;31.23;13.50;;;7.70;99.90;;;;;;4126495;28;20510;-86
2021/12/13 10:41:43;;;;;;;29.60;13.87;;;7.70;99.90;;;;;;4129134;28;20466;-86
2021/12/13 10:43:49;;;;;;;33.70;14.30;;;7.70;99.90;;;;;;4124449;28;20497;-86
2021/12/13 10:45:54;;;;;;;33.07;14.90;;;7.70;99.90;;;;;;4125020;28;20463;-86
2021/12/13 10:47:59;;;;;;;31.73;13.60;;;7.70;99.90;;;;;;4127078;28;20455;-86
2021/12/13 10:50:03;;;;;;;31.50;14.13;;;7.80;99.90;;;;;;4124855;28;20521;-87
2021/12/13 10:52:08;;;;;;;29.60;13.53;;;7.70;99.90;;;;;;4123196;28;20458;-86
2021/12/13 10:54:14;;;;;;;30.43;13.80;;;7.70;99.90;;;;;;4122541;28;20527;-86
2021/12/13 10:56:23;;;;;;;29.13;13.67;;;7.70;99.90;;;;;;4125900;28;20493;-86
2021/12/13 10:58:29;;;;;;;30.73;13.53;;;7.80;99.90;;;;;;4121110;28;20863;-86
2021/12/13 11:00:37;;;;;;;34.80;14.63;;;7.80;99.90;;;;;;4127239;28;20541;-87